Time;durP1;ratioP1;P1;durP2;ratioP2;P2;SDS_P1;SDS_P2;PMS_P1;PMS_P2;Temp;Humidity;BMP_temperature;BMP_pressure;BME280_temperature;BME280_humidity;BME280_pressure;Samples;Min_cycle;Max_cycle;Signal;HPM_P1;HPM_P2
2024/01/22 00:00:25;;;;;;;6.30;3.35;;;7.80;8.20;;;;;;5033239;28;20028;-65
2024/01/22 00:02:50;;;;;;;6.85;3.72;;;7.80;9.00;;;;;;5032817;28;20507;-66
2024/01/22 00:05:16;;;;;;;8.02;3.25;;;7.90;8.80;;;;;;5032960;28;20507;-65
2024/01/22 00:07:41;;;;;;;8.02;3.33;;;7.80;7.70;;;;;;5032950;28;20368;-65
2024/01/22 00:10:08;;;;;;;5.70;2.90;;;7.90;8.00;;;;;;5032804;28;20517;-66
2024/01/22 00:12:34;;;;;;;7.88;3.28;;;7.90;7.90;;;;;;5032750;28;20037;-66
2024/01/22 00:14:59;;;;;;;5.65;2.92;;;7.90;5.80;;;;;;5032772;28;20037;-66
2024/01/22 00:17:25;;;;;;;7.18;2.90;;;8.10;1.00;;;;;;5032537;28;20508;-65
2024/01/22 00:19:51;;;;;;;5.80;3.08;;;8.10;1.00;;;;;;5032791;28;20415;-64
2024/01/22 00:22:16;;;;;;;7.10;3.10;;;8.10;1.00;;;;;;5032848;28;20021;-65
2024/01/22 00:24:42;;;;;;;5.85;3.00;;;8.10;1.00;;;;;;5032834;28;20104;-64
2024/01/22 00:27:07;;;;;;;9.88;3.47;;;8.10;1.00;;;;;;5036367;28;20458;-66
2024/01/22 00:29:33;;;;;;;6.40;3.25;;;8.10;1.00;;;;;;5036301;28;20028;-65
2024/01/22 00:31:58;;;;;;;7.95;3.10;;;8.10;1.00;;;;;;5036266;28;20128;-66
2024/01/22 00:34:23;;;;;;;4.95;2.90;;;8.20;1.00;;;;;;5036260;28;20026;-66
2024/01/22 00:36:49;;;;;;;7.22;3.67;;;8.20;1.00;;;;;;5036034;28;20426;-66
2024/01/22 00:39:15;;;;;;;6.65;3.58;;;8.20;1.00;;;;;;5036011;28;20048;-66
2024/01/22 00:41:40;;;;;;;8.25;3.00;;;8.30;1.00;;;;;;5035992;28;20047;-67
2024/01/22 00:44:05;;;;;;;7.47;3.10;;;8.30;1.00;;;;;;5036244;28;20030;-66
2024/01/22 00:46:31;;;;;;;5.22;2.40;;;8.40;1.00;;;;;;5035836;28;20033;-66
2024/01/22 00:48:57;;;;;;;4.78;2.83;;;8.40;1.00;;;;;;5035805;28;20487;-66
2024/01/22 00:51:22;;;;;;;4.57;2.40;;;8.40;1.00;;;;;;5035893;28;20100;-66
2024/01/22 00:53:48;;;;;;;5.35;2.88;;;8.40;1.00;;;;;;5035577;28;20025;-67
2024/01/22 00:56:14;;;;;;;4.50;2.50;;;8.40;1.00;;;;;;5035895;28;20029;-66
2024/01/22 00:58:39;;;;;;;6.00;2.80;;;8.50;1.00;;;;;;5035564;28;20075;-66
2024/01/22 01:01:08;;;;;;;8.05;2.80;;;8.40;1.00;;;;;;5035694;28;20493;-65
2024/01/22 01:03:33;;;;;;;6.03;2.85;;;8.40;1.00;;;;;;5035512;28;20021;-66
2024/01/22 01:05:59;;;;;;;7.25;2.90;;;8.40;1.00;;;;;;5035476;28;20040;-66
2024/01/22 01:08:24;;;;;;;5.85;2.53;;;8.50;1.00;;;;;;5035697;28;20029;-66
2024/01/22 01:10:50;;;;;;;6.05;3.30;;;8.40;1.00;;;;;;5035448;28;20029;-66
2024/01/22 01:13:15;;;;;;;6.97;2.85;;;8.50;1.00;;;;;;5035599;28;20022;-66
2024/01/22 01:15:41;;;;;;;5.82;2.70;;;8.40;1.00;;;;;;5035225;28;20364;-65
2024/01/22 01:18:06;;;;;;;6.13;2.30;;;8.40;1.00;;;;;;5034853;28;20099;-65
2024/01/22 01:20:33;;;;;;;6.20;2.65;;;8.50;1.00;;;;;;5034972;28;20036;-67
2024/01/22 01:22:59;;;;;;;3.75;2.30;;;8.50;1.00;;;;;;5035148;28;20057;-66
2024/01/22 01:25:25;;;;;;;5.63;2.45;;;8.50;1.00;;;;;;5035364;28;20099;-67
2024/01/22 01:27:50;;;;;;;5.90;2.70;;;8.50;1.00;;;;;;5035251;28;20045;-65
2024/01/22 01:30:16;;;;;;;7.32;2.83;;;8.50;1.00;;;;;;5034862;28;20030;-66
2024/01/22 01:32:41;;;;;;;8.23;2.63;;;8.50;1.00;;;;;;5035044;28;20112;-66
2024/01/22 01:35:07;;;;;;;4.45;2.33;;;8.50;1.00;;;;;;5035322;28;20028;-65
2024/01/22 01:37:33;;;;;;;4.93;2.47;;;8.50;1.00;;;;;;5035123;28;20112;-65
2024/01/22 01:39:59;;;;;;;6.22;2.47;;;8.50;1.00;;;;;;5035191;28;20037;-69
2024/01/22 01:42:25;;;;;;;4.15;2.70;;;8.60;1.00;;;;;;5035010;28;20025;-67
2024/01/22 01:44:52;;;;;;;3.58;2.15;;;8.60;1.00;;;;;;5035253;28;20403;-68
2024/01/22 01:47:18;;;;;;;4.00;2.42;;;8.60;1.00;;;;;;5035078;28;20034;-67
2024/01/22 01:49:45;;;;;;;4.18;2.83;;;8.50;1.00;;;;;;5035085;28;20116;-67
2024/01/22 01:52:13;;;;;;;5.32;2.55;;;8.50;1.00;;;;;;5035065;28;20484;-68
2024/01/22 01:54:39;;;;;;;7.35;2.72;;;8.60;1.00;;;;;;5034990;28;20021;-66
2024/01/22 01:57:06;;;;;;;3.35;2.40;;;8.70;1.00;;;;;;5034993;28;20021;-65
2024/01/22 01:59:35;;;;;;;5.78;2.75;;;8.70;1.00;;;;;;5034763;28;20026;-64
2024/01/22 02:02:00;;;;;;;4.55;2.40;;;8.70;1.00;;;;;;5034711;28;20026;-65
2024/01/22 02:04:26;;;;;;;5.90;2.75;;;8.60;1.00;;;;;;5034809;28;20021;-64
2024/01/22 02:06:52;;;;;;;7.13;2.25;;;8.60;1.00;;;;;;5034498;28;20111;-65
2024/01/22 02:09:17;;;;;;;3.90;2.22;;;8.70;1.00;;;;;;5034749;28;20037;-65
2024/01/22 02:11:43;;;;;;;3.75;2.00;;;8.70;1.00;;;;;;5034585;28;20398;-65
2024/01/22 02:14:08;;;;;;;5.25;2.20;;;8.80;1.00;;;;;;5034797;28;20039;-66
2024/01/22 02:16:34;;;;;;;5.03;2.22;;;8.80;1.00;;;;;;5034764;28;20041;-67
2024/01/22 02:18:59;;;;;;;5.95;2.35;;;8.80;1.00;;;;;;5034141;28;20049;-66
2024/01/22 02:21:25;;;;;;;3.50;2.00;;;8.80;1.00;;;;;;5034396;28;20361;-65
2024/01/22 02:23:50;;;;;;;3.60;2.10;;;8.80;1.00;;;;;;5034006;28;20452;-66
2024/01/22 02:26:16;;;;;;;4.15;2.15;;;8.80;1.00;;;;;;5034084;28;20104;-66
2024/01/22 02:28:41;;;;;;;3.67;1.73;;;8.90;1.00;;;;;;5034258;28;20067;-66
2024/01/22 02:31:08;;;;;;;4.75;2.00;;;8.90;1.00;;;;;;5034119;28;20117;-66
2024/01/22 02:33:34;;;;;;;4.85;2.03;;;9.00;1.00;;;;;;5034175;28;20025;-66
2024/01/22 02:35:59;;;;;;;6.63;2.35;;;9.00;1.00;;;;;;5034189;28;20041;-67
2024/01/22 02:38:25;;;;;;;4.15;1.80;;;9.10;1.00;;;;;;5033820;28;20033;-66
2024/01/22 02:40:51;;;;;;;3.13;2.00;;;9.20;1.00;;;;;;5033781;28;20021;-66
2024/01/22 02:43:17;;;;;;;5.22;2.00;;;9.10;1.00;;;;;;5033954;28;20067;-66
2024/01/22 02:45:43;;;;;;;2.90;1.80;;;9.10;1.00;;;;;;5032578;28;20116;-66
2024/01/22 02:48:08;;;;;;;5.53;2.65;;;9.10;1.00;;;;;;5033162;28;20110;-66
2024/01/22 02:50:34;;;;;;;5.43;1.88;;;9.10;1.00;;;;;;5033679;28;20021;-66
2024/01/22 02:52:59;;;;;;;4.30;1.83;;;9.10;1.00;;;;;;5033310;28;20128;-67
2024/01/22 02:55:25;;;;;;;4.07;1.92;;;9.00;1.00;;;;;;5033557;28;20033;-67
2024/01/22 02:57:50;;;;;;;3.78;2.05;;;9.00;1.00;;;;;;5033397;28;20030;-68
2024/01/22 03:00:16;;;;;;;2.72;1.75;;;9.10;1.00;;;;;;5033683;28;20026;-64
2024/01/22 03:02:42;;;;;;;3.40;1.80;;;9.10;1.00;;;;;;5033460;28;20021;-64
2024/01/22 03:05:08;;;;;;;2.25;1.38;;;9.00;1.00;;;;;;5033508;28;20044;-64
2024/01/22 03:07:33;;;;;;;2.72;1.67;;;9.10;1.00;;;;;;5033308;28;20034;-65
2024/01/22 03:09:59;;;;;;;5.50;1.85;;;9.20;1.00;;;;;;5033616;28;20040;-64
2024/01/22 03:12:24;;;;;;;3.30;1.77;;;9.10;1.00;;;;;;5033274;28;20110;-63
2024/01/22 03:14:50;;;;;;;2.97;1.70;;;9.20;1.00;;;;;;5033298;28;20037;-65
2024/01/22 03:17:15;;;;;;;5.75;1.85;;;9.20;1.00;;;;;;5033057;28;20492;-65
2024/01/22 03:19:41;;;;;;;5.03;1.63;;;9.20;1.00;;;;;;5033375;28;20021;-66
2024/01/22 03:22:06;;;;;;;2.90;1.45;;;9.10;1.00;;;;;;5033037;28;20117;-66
2024/01/22 03:24:32;;;;;;;3.53;1.80;;;9.20;1.00;;;;;;5033084;28;20102;-65
2024/01/22 03:26:57;;;;;;;4.28;1.83;;;9.20;1.00;;;;;;5033090;28;20026;-66
2024/01/22 03:29:23;;;;;;;3.75;1.73;;;9.20;1.00;;;;;;5033162;28;20022;-67
2024/01/22 03:31:49;;;;;;;2.65;1.60;;;9.30;1.00;;;;;;5033130;28;20044;-67
2024/01/22 03:34:15;;;;;;;2.65;1.50;;;9.30;1.00;;;;;;5033070;28;20031;-65
2024/01/22 03:36:40;;;;;;;1.88;1.40;;;9.30;1.00;;;;;;5033026;28;20112;-67
2024/01/22 03:39:06;;;;;;;2.03;1.75;;;9.20;1.00;;;;;;5033050;28;20033;-66
2024/01/22 03:41:32;;;;;;;3.22;1.67;;;9.30;1.00;;;;;;5033087;28;20120;-67
2024/01/22 03:43:58;;;;;;;4.95;1.80;;;9.20;1.00;;;;;;5032972;28;20049;-66
2024/01/22 03:46:24;;;;;;;3.95;1.60;;;9.20;1.00;;;;;;5032974;28;20049;-67
2024/01/22 03:48:49;;;;;;;3.08;1.75;;;9.20;1.00;;;;;;5033078;28;20087;-67
2024/01/22 03:51:15;;;;;;;2.17;1.60;;;9.30;1.00;;;;;;5032966;28;20080;-68
2024/01/22 03:53:40;;;;;;;2.83;1.50;;;9.30;1.00;;;;;;5033002;28;20065;-67
2024/01/22 03:56:06;;;;;;;2.47;1.40;;;9.30;1.00;;;;;;5033147;28;20040;-66
2024/01/22 03:58:33;;;;;;;3.40;1.63;;;9.30;1.00;;;;;;5032747;28;20104;-64
2024/01/22 04:01:00;;;;;;;3.90;1.70;;;9.30;1.00;;;;;;5035083;28;20113;-64
2024/01/22 04:03:26;;;;;;;2.70;1.50;;;9.30;1.00;;;;;;5035725;28;20061;-65
2024/01/22 04:05:52;;;;;;;2.60;1.67;;;9.40;1.00;;;;;;5036847;28;20510;-65
2024/01/22 04:08:17;;;;;;;1.63;1.50;;;9.40;1.00;;;;;;5035461;28;20061;-66
2024/01/22 04:10:43;;;;;;;4.13;2.10;;;9.50;1.00;;;;;;5036535;28;20476;-68
2024/01/22 04:13:08;;;;;;;3.20;1.92;;;9.50;1.00;;;;;;5036746;28;20029;-67
2024/01/22 04:15:34;;;;;;;7.53;1.63;;;9.50;1.00;;;;;;5036436;28;20022;-67
2024/01/22 04:18:00;;;;;;;2.53;1.70;;;9.30;23.60;;;;;;5036109;28;20057;-67
2024/01/22 04:20:25;;;;;;;3.58;1.63;;;9.30;40.60;;;;;;5036458;28;20061;-68
2024/01/22 04:22:51;;;;;;;4.68;2.10;;;9.10;58.80;;;;;;5036541;28;20032;-67
2024/01/22 04:25:17;;;;;;;2.88;1.85;;;9.10;65.70;;;;;;5036317;28;20109;-68
2024/01/22 04:27:42;;;;;;;5.15;2.08;;;9.10;78.60;;;;;;5036424;28;20364;-67
2024/01/22 04:30:08;;;;;;;2.80;1.70;;;9.00;92.90;;;;;;5036266;28;20037;-67
2024/01/22 04:32:34;;;;;;;2.40;1.70;;;9.00;96.40;;;;;;5036094;28;20056;-68
2024/01/22 04:35:00;;;;;;;2.70;1.90;;;8.90;99.90;;;;;;5036020;28;20087;-69
2024/01/22 04:37:26;;;;;;;5.82;1.60;;;9.00;99.90;;;;;;5036013;28;20030;-65
2024/01/22 04:39:51;;;;;;;3.20;1.77;;;9.00;99.90;;;;;;5034907;28;20527;-67
2024/01/22 04:42:20;;;;;;;3.70;1.63;;;9.00;99.90;;;;;;5035833;28;20060;-68
2024/01/22 04:44:46;;;;;;;5.55;1.90;;;9.00;99.90;;;;;;5035982;28;20021;-66
2024/01/22 04:47:11;;;;;;;2.80;1.77;;;8.90;99.90;;;;;;5036126;28;20026;-66
2024/01/22 04:49:37;;;;;;;4.53;1.73;;;8.90;99.90;;;;;;5035838;28;20025;-66
2024/01/22 04:52:02;;;;;;;4.20;1.60;;;8.90;99.90;;;;;;5035930;28;20034;-68
2024/01/22 04:54:28;;;;;;;2.75;1.38;;;9.00;99.90;;;;;;5035870;28;20060;-68
2024/01/22 04:56:54;;;;;;;2.28;1.50;;;8.90;99.90;;;;;;5035692;28;20040;-68
2024/01/22 04:59:20;;;;;;;4.93;1.60;;;8.80;99.90;;;;;;5035545;28;20083;-68
2024/01/22 05:01:45;;;;;;;2.28;1.60;;;8.90;99.90;;;;;;5035742;28;20490;-66
2024/01/22 05:04:11;;;;;;;2.13;1.42;;;8.90;99.90;;;;;;5035330;28;20087;-67
2024/01/22 05:06:36;;;;;;;4.85;1.60;;;8.90;99.90;;;;;;5035524;28;20025;-68
2024/01/22 05:09:04;;;;;;;2.15;1.48;;;8.80;99.90;;;;;;5035172;28;20025;-67
2024/01/22 05:11:29;;;;;;;1.90;1.45;;;8.90;99.90;;;;;;5034907;28;20125;-67
2024/01/22 05:13:56;;;;;;;4.47;1.38;;;8.90;99.90;;;;;;5035397;28;20120;-67
2024/01/22 05:16:22;;;;;;;5.00;1.60;;;8.90;99.90;;;;;;5035158;28;20398;-68
2024/01/22 05:18:49;;;;;;;2.67;1.17;;;8.80;99.90;;;;;;5035064;28;20136;-68
2024/01/22 05:21:15;;;;;;;3.97;1.90;;;8.80;99.90;;;;;;5035495;28;20144;-68
2024/01/22 05:23:41;;;;;;;1.83;1.10;;;8.80;99.90;;;;;;5035498;28;20486;-66
2024/01/22 05:26:07;;;;;;;1.92;1.20;;;8.80;99.90;;;;;;5035310;28;20022;-66
2024/01/22 05:28:33;;;;;;;5.22;1.45;;;8.80;99.90;;;;;;5035248;28;20132;-67
2024/01/22 05:31:00;;;;;;;2.88;1.38;;;8.80;99.90;;;;;;5033801;28;20048;-66
2024/01/22 05:33:26;;;;;;;4.70;1.20;;;8.80;99.90;;;;;;5035191;28;20041;-67
2024/01/22 05:35:51;;;;;;;2.97;1.10;;;8.80;99.90;;;;;;5034951;28;20059;-67
2024/01/22 05:38:17;;;;;;;1.55;1.27;;;8.90;99.90;;;;;;5034878;28;20030;-67
2024/01/22 05:40:42;;;;;;;2.88;1.02;;;8.90;99.90;;;;;;5034893;28;20387;-66
2024/01/22 05:43:08;;;;;;;2.72;1.10;;;8.90;99.90;;;;;;5034896;28;20026;-66
2024/01/22 05:45:34;;;;;;;1.20;1.10;;;9.00;99.90;;;;;;5034752;28;20101;-67
2024/01/22 05:47:59;;;;;;;2.15;1.02;;;9.00;99.90;;;;;;5034881;28;20095;-67
2024/01/22 05:50:25;;;;;;;1.00;0.90;;;8.90;99.90;;;;;;5034645;28;20144;-67
2024/01/22 05:52:50;;;;;;;2.28;1.20;;;8.90;99.90;;;;;;5034771;28;20040;-67
2024/01/22 05:55:16;;;;;;;1.50;0.93;;;8.90;99.90;;;;;;5034667;28;20029;-67
2024/01/22 05:57:41;;;;;;;1.50;1.00;;;8.90;99.90;;;;;;5034583;28;20044;-67
2024/01/22 06:00:09;;;;;;;1.65;1.02;;;8.90;99.90;;;;;;5034699;28;20018;-67
2024/01/22 06:02:36;;;;;;;1.92;1.10;;;8.80;99.90;;;;;;5034663;28;20080;-67
2024/01/22 06:05:02;;;;;;;3.72;1.08;;;8.80;99.90;;;;;;5034375;28;20025;-67
2024/01/22 06:07:27;;;;;;;1.23;1.13;;;8.80;99.90;;;;;;5034341;28;20025;-66
2024/01/22 06:09:53;;;;;;;2.67;1.00;;;8.80;99.90;;;;;;5034490;28;20522;-67
2024/01/22 06:12:18;;;;;;;2.97;1.00;;;8.80;99.90;;;;;;5034531;28;20032;-66
2024/01/22 06:14:44;;;;;;;2.00;1.17;;;8.80;99.90;;;;;;5034490;28;20033;-67
2024/01/22 06:17:09;;;;;;;3.08;1.00;;;8.80;99.90;;;;;;5034087;28;20033;-67
2024/01/22 06:19:35;;;;;;;1.15;1.00;;;8.90;99.90;;;;;;5034035;28;20018;-67
2024/01/22 06:22:01;;;;;;;1.40;0.93;;;8.90;99.90;;;;;;5033915;28;20321;-67
2024/01/22 06:24:26;;;;;;;1.20;0.82;;;8.90;99.90;;;;;;5033291;28;20057;-66
2024/01/22 06:26:52;;;;;;;2.33;1.05;;;8.90;99.90;;;;;;5033749;28;20475;-66
2024/01/22 06:29:18;;;;;;;1.70;1.05;;;8.90;99.90;;;;;;5034027;28;20035;-66
2024/01/22 06:31:44;;;;;;;1.55;1.20;;;8.90;99.90;;;;;;5034170;28;20033;-65
2024/01/22 06:34:11;;;;;;;2.08;1.55;;;8.90;99.90;;;;;;5034000;28;20186;-66
2024/01/22 06:36:38;;;;;;;3.75;1.13;;;9.00;99.90;;;;;;5033801;28;20022;-65
2024/01/22 06:39:03;;;;;;;1.08;0.98;;;9.00;99.90;;;;;;5033507;28;20041;-66
2024/01/22 06:41:29;;;;;;;2.13;1.25;;;9.00;99.90;;;;;;5032299;28;20038;-66
2024/01/22 06:43:55;;;;;;;3.80;1.13;;;9.00;99.90;;;;;;5032079;28;20025;-65
2024/01/22 06:46:21;;;;;;;1.15;1.00;;;9.10;99.90;;;;;;5033214;28;20033;-66
2024/01/22 06:48:47;;;;;;;6.13;1.40;;;9.10;99.90;;;;;;5033825;28;20048;-66
2024/01/22 06:51:12;;;;;;;1.98;1.02;;;9.10;99.90;;;;;;5035056;28;20033;-65
2024/01/22 06:53:38;;;;;;;2.90;1.15;;;9.10;99.90;;;;;;5032638;28;20057;-65
2024/01/22 06:56:05;;;;;;;1.77;0.88;;;9.10;99.90;;;;;;5031966;28;20051;-65
2024/01/22 06:58:31;;;;;;;1.05;0.95;;;9.10;99.90;;;;;;5029926;28;20061;-64
2024/01/22 07:00:56;;;;;;;2.97;0.80;;;9.10;99.90;;;;;;5035659;28;20684;-67
2024/01/22 07:03:22;;;;;;;1.85;0.90;;;9.30;99.90;;;;;;5034580;28;20040;-66
2024/01/22 07:05:48;;;;;;;2.40;1.00;;;9.30;99.90;;;;;;5038716;28;20021;-66
2024/01/22 07:08:14;;;;;;;2.10;1.25;;;9.20;99.90;;;;;;5036395;28;20030;-65
2024/01/22 07:10:40;;;;;;;4.18;1.20;;;9.30;99.90;;;;;;5034229;28;20079;-66
2024/01/22 07:13:06;;;;;;;3.17;1.60;;;9.20;99.90;;;;;;5036486;28;20021;-66
2024/01/22 07:15:31;;;;;;;1.30;1.20;;;9.20;99.90;;;;;;5032375;28;20045;-65
2024/01/22 07:17:57;;;;;;;3.55;1.25;;;9.10;99.90;;;;;;5034277;28;20124;-66
2024/01/22 07:20:23;;;;;;;4.05;0.93;;;9.10;99.90;;;;;;5038307;28;20036;-66
2024/01/22 07:22:48;;;;;;;1.40;1.30;;;9.10;99.90;;;;;;5039903;28;20037;-65
2024/01/22 07:25:15;;;;;;;3.88;1.25;;;9.20;99.90;;;;;;5033665;28;20030;-65
2024/01/22 07:27:42;;;;;;;2.25;1.00;;;9.10;99.90;;;;;;5031295;28;20024;-69
2024/01/22 07:30:11;;;;;;;3.08;1.10;;;9.00;99.90;;;;;;5031450;28;20060;-70
2024/01/22 07:32:37;;;;;;;3.13;1.27;;;9.00;99.90;;;;;;5026237;28;20029;-69
2024/01/22 07:35:07;;;;;;;2.03;1.10;;;8.90;99.90;;;;;;5026398;28;20022;-69
2024/01/22 07:37:34;;;;;;;2.03;1.40;;;8.90;99.90;;;;;;5030730;28;20029;-70
2024/01/22 07:40:01;;;;;;;3.42;1.63;;;8.90;99.90;;;;;;5035914;28;20025;-70
2024/01/22 07:42:26;;;;;;;3.70;1.10;;;8.80;99.90;;;;;;5032102;28;20116;-68
2024/01/22 07:44:52;;;;;;;3.83;1.48;;;8.90;99.90;;;;;;5035662;28;20144;-69
2024/01/22 07:47:17;;;;;;;2.03;1.23;;;8.80;99.90;;;;;;5037643;28;20024;-65
2024/01/22 07:49:43;;;;;;;4.00;1.55;;;8.80;99.90;;;;;;5026713;28;20029;-67
2024/01/22 07:52:08;;;;;;;1.75;1.30;;;8.70;99.90;;;;;;5032926;28;20067;-69
2024/01/22 07:54:34;;;;;;;1.63;1.20;;;8.70;99.90;;;;;;5028491;28;21954;-69
2024/01/22 07:57:00;;;;;;;2.83;1.38;;;8.70;99.90;;;;;;5032755;28;20033;-68
2024/01/22 07:59:25;;;;;;;4.47;1.50;;;8.70;99.90;;;;;;5033776;28;20022;-68
2024/01/22 08:01:51;;;;;;;3.08;1.35;;;8.70;99.90;;;;;;5027311;28;20037;-67
2024/01/22 08:04:16;;;;;;;1.30;1.20;;;8.70;99.90;;;;;;5028915;28;20084;-67
2024/01/22 08:06:42;;;;;;;6.68;1.88;;;8.70;99.90;;;;;;5031923;28;20021;-66
2024/01/22 08:09:07;;;;;;;1.85;1.50;;;8.70;99.90;;;;;;5029915;28;20057;-68
2024/01/22 08:11:33;;;;;;;3.42;1.92;;;8.70;99.90;;;;;;5026490;28;20048;-66
2024/01/22 08:13:58;;;;;;;2.63;1.80;;;8.80;99.90;;;;;;5033170;28;20463;-67
2024/01/22 08:16:24;;;;;;;2.75;1.50;;;8.80;99.90;;;;;;5031082;28;20036;-67
2024/01/22 08:18:50;;;;;;;1.70;1.58;;;8.90;99.90;;;;;;5033657;28;20120;-67
2024/01/22 08:21:15;;;;;;;4.22;1.88;;;9.00;99.90;;;;;;5033061;28;20060;-67
2024/01/22 08:23:41;;;;;;;3.78;1.20;;;9.00;99.90;;;;;;5034976;28;20036;-67
2024/01/22 08:26:06;;;;;;;2.88;1.88;;;9.10;99.90;;;;;;5039165;28;20025;-66
2024/01/22 08:28:32;;;;;;;4.53;1.60;;;9.20;99.90;;;;;;5033184;28;20029;-68
2024/01/22 08:30:58;;;;;;;4.78;1.48;;;9.20;99.90;;;;;;5040867;28;20029;-67
2024/01/22 08:33:23;;;;;;;5.35;1.92;;;9.30;99.90;;;;;;5034959;28;20110;-67
2024/01/22 08:35:49;;;;;;;2.22;1.30;;;9.50;99.90;;;;;;5033451;28;20451;-66
2024/01/22 08:38:14;;;;;;;1.67;1.20;;;9.50;99.90;;;;;;5035927;28;20025;-66
2024/01/22 08:40:40;;;;;;;6.90;2.03;;;9.60;99.90;;;;;;5038581;28;20039;-66
2024/01/22 08:43:06;;;;;;;3.67;1.40;;;9.80;99.90;;;;;;5030039;28;20045;-67
2024/01/22 08:45:33;;;;;;;3.13;1.17;;;10.00;99.90;;;;;;5035418;28;20111;-67
2024/01/22 08:47:59;;;;;;;2.50;1.10;;;10.10;99.90;;;;;;5035123;28;20430;-67
2024/01/22 08:50:24;;;;;;;5.28;1.27;;;10.30;99.90;;;;;;5040715;28;20029;-66
2024/01/22 08:52:53;;;;;;;2.33;1.10;;;10.40;99.90;;;;;;5035844;28;20455;-67
2024/01/22 08:55:20;;;;;;;2.47;1.10;;;10.60;99.90;;;;;;5034205;28;20116;-65
2024/01/22 08:57:46;;;;;;;3.03;1.30;;;10.60;99.90;;;;;;5037225;28;20474;-66
2024/01/22 09:00:13;;;;;;;2.70;1.20;;;10.60;99.90;;;;;;5032272;28;20022;-67
2024/01/22 09:02:39;;;;;;;1.90;1.17;;;10.70;99.90;;;;;;5035423;28;20029;-65
2024/01/22 09:05:07;;;;;;;2.08;1.00;;;10.80;99.90;;;;;;5033753;28;20021;-67
2024/01/22 09:07:34;;;;;;;2.88;1.25;;;10.90;99.90;;;;;;5034865;28;20025;-67
2024/01/22 09:10:00;;;;;;;2.88;1.10;;;11.00;99.90;;;;;;5034700;28;20037;-67
2024/01/22 09:12:26;;;;;;;2.25;1.30;;;11.00;99.90;;;;;;5034518;28;20048;-67
2024/01/22 09:14:52;;;;;;;4.05;1.17;;;11.00;99.90;;;;;;5034671;28;20032;-68
2024/01/22 09:17:17;;;;;;;5.10;1.48;;;11.10;99.90;;;;;;5030865;28;20495;-67
2024/01/22 09:19:43;;;;;;;2.78;1.38;;;11.20;99.90;;;;;;5032322;28;20033;-67
2024/01/22 09:22:08;;;;;;;3.13;0.93;;;11.30;99.90;;;;;;5033820;28;20056;-67
2024/01/22 09:24:34;;;;;;;3.60;1.27;;;11.30;99.90;;;;;;5044698;28;20043;-67
2024/01/22 09:27:00;;;;;;;2.25;1.33;;;11.30;99.90;;;;;;5034790;28;20499;-66
2024/01/22 09:29:25;;;;;;;2.00;1.10;;;11.30;99.90;;;;;;5035443;28;20041;-68
2024/01/22 09:31:51;;;;;;;2.70;1.15;;;11.30;99.90;;;;;;5036645;28;20030;-67
2024/01/22 09:34:16;;;;;;;6.65;1.52;;;11.40;99.90;;;;;;5033045;28;20499;-67
2024/01/22 09:36:42;;;;;;;3.78;1.20;;;11.40;99.90;;;;;;5039115;28;20101;-69
2024/01/22 09:39:07;;;;;;;4.82;1.77;;;11.40;99.90;;;;;;5032321;28;20021;-68
2024/01/22 09:41:35;;;;;;;6.25;1.50;;;11.20;99.90;;;;;;5034766;28;20014;-69
2024/01/22 09:44:01;;;;;;;2.67;1.27;;;11.20;99.90;;;;;;5032500;28;20475;-67
2024/01/22 09:46:27;;;;;;;2.08;1.42;;;11.20;99.90;;;;;;5032608;28;20017;-67
2024/01/22 09:48:54;;;;;;;3.45;1.75;;;11.10;99.90;;;;;;5032065;28;20028;-67
2024/01/22 09:51:20;;;;;;;2.72;1.55;;;11.00;99.90;;;;;;5035543;28;20084;-71
2024/01/22 09:53:47;;;;;;;3.17;1.35;;;11.00;99.90;;;;;;5024702;28;20423;-69
2024/01/22 09:56:16;;;;;;;4.43;1.88;;;10.90;99.90;;;;;;5031063;28;20068;-68
2024/01/22 09:58:43;;;;;;;6.35;1.98;;;10.90;99.90;;;;;;5033742;28;20132;-69
2024/01/22 10:01:11;;;;;;;1.90;1.33;;;10.90;99.90;;;;;;5029280;28;20025;-72
2024/01/22 10:03:37;;;;;;;3.95;1.13;;;10.90;99.90;;;;;;5027135;28;20052;-72
2024/01/22 10:06:03;;;;;;;3.65;1.90;;;10.90;99.90;;;;;;5036149;28;20033;-70
2024/01/22 10:08:29;;;;;;;6.32;2.50;;;11.00;99.90;;;;;;5033078;28;20056;-69
2024/01/22 10:10:55;;;;;;;4.43;1.20;;;11.00;99.90;;;;;;5037221;28;20053;-70
2024/01/22 10:13:20;;;;;;;3.13;1.45;;;11.10;99.90;;;;;;5031750;28;20546;-69
2024/01/22 10:15:46;;;;;;;3.10;1.25;;;11.00;99.90;;;;;;5033440;28;20113;-70
2024/01/22 10:18:16;;;;;;;7.25;1.60;;;11.00;99.90;;;;;;5032582;28;20061;-73
2024/01/22 10:20:44;;;;;;;5.95;1.33;;;11.00;99.90;;;;;;5034014;28;20029;-68
2024/01/22 10:23:11;;;;;;;4.53;1.50;;;11.20;99.90;;;;;;5029842;28;20060;-70
2024/01/22 10:25:36;;;;;;;4.28;1.30;;;11.20;98.20;;;;;;5033587;28;20374;-70
2024/01/22 10:28:19;;;;;;;2.85;1.20;;;11.20;95.60;;;;;;5034018;28;20041;-70
2024/01/22 10:30:46;;;;;;;3.67;1.40;;;11.20;92.20;;;;;;5036514;28;20074;-70
2024/01/22 10:33:17;;;;;;;7.28;1.55;;;11.20;91.10;;;;;;5034951;28;20041;-71
2024/01/22 10:35:45;;;;;;;6.70;1.58;;;11.30;87.60;;;;;;5033747;28;20435;-69
2024/01/22 10:38:16;;;;;;;7.18;1.58;;;11.40;70.20;;;;;;5033576;28;20079;-69
2024/01/22 10:40:43;;;;;;;6.90;1.92;;;11.40;62.60;;;;;;5041535;28;20076;-71
2024/01/22 10:43:26;;;;;;;8.68;1.92;;;11.50;50.70;;;;;;5029713;28;20026;-72
2024/01/22 10:45:54;;;;;;;7.22;2.22;;;11.60;48.70;;;;;;5032922;28;20025;-70
2024/01/22 10:48:23;;;;;;;6.72;1.50;;;11.60;43.60;;;;;;5029501;28;20491;-72
2024/01/22 10:50:49;;;;;;;4.93;1.95;;;11.80;25.20;;;;;;5029513;28;20029;-73
2024/01/22 10:53:15;;;;;;;4.93;2.08;;;11.80;18.40;;;;;;5033562;28;20407;-71
2024/01/22 10:55:48;;;;;;;7.78;2.17;;;11.90;5.70;;;;;;5030592;28;20037;-70
2024/01/22 10:58:24;;;;;;;3.63;1.40;;;12.00;1.00;;;;;;5033007;28;20057;-71
2024/01/22 11:00:51;;;;;;;4.72;1.70;;;12.10;1.00;;;;;;5028641;28;20048;-72
2024/01/22 11:03:18;;;;;;;6.28;1.38;;;12.20;1.00;;;;;;5027401;28;20037;-71
2024/01/22 11:05:46;;;;;;;10.75;1.80;;;12.20;1.00;;;;;;5024987;28;20044;-72
2024/01/22 11:08:13;;;;;;;8.15;1.52;;;12.30;1.00;;;;;;5024438;28;20059;-70
2024/01/22 11:10:43;;;;;;;6.93;1.73;;;12.40;1.00;;;;;;5024669;28;20115;-69
2024/01/22 11:13:09;;;;;;;9.43;2.50;;;12.40;1.00;;;;;;5039067;28;20033;-71
2024/01/22 11:15:35;;;;;;;7.97;2.53;;;12.50;1.00;;;;;;5031052;28;20368;-72
2024/01/22 11:18:01;;;;;;;15.23;2.30;;;12.60;1.00;;;;;;5035232;28;20041;-76
2024/01/22 11:20:27;;;;;;;11.68;2.28;;;12.60;1.00;;;;;;5029373;28;20037;-73
2024/01/22 11:23:02;;;;;;;7.47;1.42;;;12.50;1.00;;;;;;5032714;28;20084;-71
2024/01/22 11:25:28;;;;;;;13.80;2.70;;;12.60;1.00;;;;;;5030574;28;20402;-71
2024/01/22 11:28:12;;;;;;;8.63;2.10;;;12.50;1.00;;;;;;5030627;28;20484;-72
2024/01/22 11:30:39;;;;;;;9.25;2.03;;;12.50;1.00;;;;;;5031299;28;20055;-75
2024/01/22 11:36:02;;;;;;;9.25;2.42;;;12.60;1.00;;;;;;5107652;27;20133;-74
2024/01/22 11:41:40;;;;;;;8.70;2.80;;;12.60;1.00;;;;;;5101861;27;20406;-70
2024/01/22 11:44:05;;;;;;;11.63;2.42;;;12.50;1.00;;;;;;5107632;28;20055;-71
2024/01/22 11:46:31;;;;;;;8.77;2.78;;;12.30;1.00;;;;;;5110831;28;20075;-72
2024/01/22 11:49:07;;;;;;;8.45;2.10;;;12.70;1.00;;;;;;5108849;28;20028;-71
2024/01/22 11:51:32;;;;;;;7.63;2.10;;;12.70;1.00;;;;;;5110808;28;20389;-72
2024/01/22 11:53:58;;;;;;;8.20;2.03;;;12.60;1.00;;;;;;5106626;28;20024;-71
2024/01/22 11:56:23;;;;;;;9.05;2.15;;;12.50;1.00;;;;;;5105410;28;20067;-72
2024/01/22 11:59:01;;;;;;;7.30;1.67;;;12.50;1.00;;;;;;5106025;28;20020;-71
2024/01/22 12:01:27;;;;;;;6.82;1.50;;;12.50;1.00;;;;;;5104655;28;20417;-72
2024/01/22 12:03:52;;;;;;;7.90;2.03;;;12.40;1.00;;;;;;5107966;28;20024;-72
2024/01/22 12:06:19;;;;;;;9.88;1.60;;;12.20;9.40;;;;;;5102966;28;20069;-68
2024/01/22 12:08:56;;;;;;;7.90;2.25;;;12.10;32.20;;;;;;5109867;28;20020;-71
2024/01/22 12:11:22;;;;;;;6.43;1.73;;;12.00;40.20;;;;;;5105641;28;20509;-73
2024/01/22 12:13:47;;;;;;;8.07;1.88;;;12.00;50.20;;;;;;5108267;28;20031;-72
2024/01/22 12:16:16;;;;;;;9.82;2.08;;;12.00;60.00;;;;;;5110754;28;20024;-74
2024/01/22 12:18:42;;;;;;;6.63;1.42;;;11.40;99.90;;;;;;5108554;28;20538;-74
2024/01/22 12:21:10;;;;;;;3.35;0.98;;;10.60;99.90;;;;;;5106816;28;20179;-71
2024/01/22 12:23:36;;;;;;;9.35;1.65;;;10.20;99.90;;;;;;5104867;28;20035;-71
2024/01/22 12:26:02;;;;;;;8.10;1.55;;;9.80;99.90;;;;;;5108231;28;20043;-72
2024/01/22 12:28:28;;;;;;;5.18;1.60;;;9.60;99.90;;;;;;5105848;28;20024;-71
2024/01/22 12:31:02;;;;;;;7.18;2.00;;;9.50;99.90;;;;;;5106602;28;20063;-70
2024/01/22 12:33:29;;;;;;;8.95;2.63;;;9.20;99.90;;;;;;5110061;28;20047;-72
2024/01/22 12:36:12;;;;;;;13.65;3.72;;;9.00;99.90;;;;;;5106522;28;20048;-72
2024/01/22 12:38:54;;;;;;;15.93;3.53;;;8.90;99.90;;;;;;5104330;28;20071;-72
2024/01/22 12:41:21;;;;;;;13.57;2.75;;;8.80;99.90;;;;;;5105339;28;20044;-71
2024/01/22 12:43:47;;;;;;;17.08;2.88;;;8.70;99.90;;;;;;5112729;28;20035;-70
2024/01/22 12:46:16;;;;;;;14.57;3.25;;;8.60;99.90;;;;;;5101601;28;20473;-71
2024/01/22 12:48:44;;;;;;;18.45;2.90;;;8.60;99.90;;;;;;5109370;28;20023;-72
2024/01/22 12:51:10;;;;;;;31.23;3.80;;;8.60;99.90;;;;;;5092523;28;20024;-71
2024/01/22 12:53:36;;;;;;;18.50;3.75;;;8.60;99.90;;;;;;5098280;28;20069;-71
2024/01/22 12:56:03;;;;;;;18.15;3.58;;;8.60;99.90;;;;;;5094444;28;20375;-72
2024/01/22 12:58:29;;;;;;;22.50;3.55;;;8.60;99.90;;;;;;5095031;28;20538;-76